sensor_id;sensor_type;location;lat;lon;timestamp;temperature;humidity
15259;DHT22;34462;51.368;12.364;2023-10-08T00:00:47;18.00;99.90
15259;DHT22;34462;51.368;12.364;2023-10-08T00:03:18;18.00;99.90
15259;DHT22;34462;51.368;12.364;2023-10-08T00:05:48;18.00;99.90
15259;DHT22;34462;51.368;12.364;2023-10-08T00:08:17;18.00;99.90
15259;DHT22;34462;51.368;12.364;2023-10-08T00:10:45;18.00;99.90
15259;DHT22;34462;51.368;12.364;2023-10-08T00:13:15;18.00;99.90
15259;DHT22;34462;51.368;12.364;2023-10-08T00:15:44;18.00;99.90
15259;DHT22;34462;51.368;12.364;2023-10-08T00:18:20;18.00;99.90
15259;DHT22;34462;51.368;12.364;2023-10-08T00:20:51;18.00;99.90
15259;DHT22;34462;51.368;12.364;2023-10-08T00:23:25;18.00;99.90
15259;DHT22;34462;51.368;12.364;2023-10-08T00:25:54;18.20;99.90
15259;DHT22;34462;51.368;12.364;2023-10-08T00:28:23;17.90;99.90
15259;DHT22;34462;51.368;12.364;2023-10-08T00:30:55;17.80;99.90
15259;DHT22;34462;51.368;12.364;2023-10-08T00:33:24;17.70;99.90
15259;DHT22;34462;51.368;12.364;2023-10-08T00:35:53;17.70;99.90
15259;DHT22;34462;51.368;12.364;2023-10-08T00:38:22;17.70;99.90
15259;DHT22;34462;51.368;12.364;2023-10-08T00:40:59;17.70;99.90
15259;DHT22;34462;51.368;12.364;2023-10-08T00:43:30;17.70;99.90
15259;DHT22;34462;51.368;12.364;2023-10-08T00:46:00;17.70;99.90
15259;DHT22;34462;51.368;12.364;2023-10-08T00:48:29;17.70;99.90
15259;DHT22;34462;51.368;12.364;2023-10-08T00:51:04;17.60;99.90
15259;DHT22;34462;51.368;12.364;2023-10-08T00:53:52;17.60;99.90
15259;DHT22;34462;51.368;12.364;2023-10-08T00:56:27;17.70;99.90
15259;DHT22;34462;51.368;12.364;2023-10-08T00:59:13;17.70;99.90
15259;DHT22;34462;51.368;12.364;2023-10-08T01:01:43;17.70;99.90
15259;DHT22;34462;51.368;12.364;2023-10-08T01:04:18;17.60;99.90
15259;DHT22;34462;51.368;12.364;2023-10-08T01:06:52;17.60;99.90
15259;DHT22;34462;51.368;12.364;2023-10-08T01:09:22;17.50;99.90
15259;DHT22;34462;51.368;12.364;2023-10-08T01:12:10;17.50;99.90
15259;DHT22;34462;51.368;12.364;2023-10-08T01:14:42;17.60;99.90
15259;DHT22;34462;51.368;12.364;2023-10-08T01:17:13;17.60;99.90
15259;DHT22;34462;51.368;12.364;2023-10-08T01:19:43;17.60;99.90
15259;DHT22;34462;51.368;12.364;2023-10-08T01:22:17;17.40;99.90
15259;DHT22;34462;51.368;12.364;2023-10-08T01:24:48;17.30;99.90
15259;DHT22;34462;51.368;12.364;2023-10-08T01:27:18;17.00;99.90
15259;DHT22;34462;51.368;12.364;2023-10-08T01:29:49;16.80;99.90
15259;DHT22;34462;51.368;12.364;2023-10-08T01:32:19;16.50;99.90
15259;DHT22;34462;51.368;12.364;2023-10-08T01:34:49;16.40;99.90
15259;DHT22;34462;51.368;12.364;2023-10-08T01:37:19;16.20;99.90
15259;DHT22;34462;51.368;12.364;2023-10-08T01:39:48;16.10;99.90
15259;DHT22;34462;51.368;12.364;2023-10-08T01:42:17;15.90;99.90
15259;DHT22;34462;51.368;12.364;2023-10-08T01:44:48;15.70;99.90
15259;DHT22;34462;51.368;12.364;2023-10-08T01:47:17;15.40;99.90
15259;DHT22;34462;51.368;12.364;2023-10-08T01:49:46;15.20;99.90
15259;DHT22;34462;51.368;12.364;2023-10-08T01:52:15;15.10;99.90
15259;DHT22;34462;51.368;12.364;2023-10-08T01:54:49;14.90;99.90
15259;DHT22;34462;51.368;12.364;2023-10-08T01:57:20;14.80;99.90
15259;DHT22;34462;51.368;12.364;2023-10-08T01:59:48;14.60;99.90
15259;DHT22;34462;51.368;12.364;2023-10-08T02:02:17;14.50;99.90
15259;DHT22;34462;51.368;12.364;2023-10-08T02:04:45;14.40;99.90
15259;DHT22;34462;51.368;12.364;2023-10-08T02:07:14;14.30;99.90
15259;DHT22;34462;51.368;12.364;2023-10-08T02:09:42;14.20;99.90
15259;DHT22;34462;51.368;12.364;2023-10-08T02:12:12;14.10;99.90
15259;DHT22;34462;51.368;12.364;2023-10-08T02:14:41;14.10;99.90
15259;DHT22;34462;51.368;12.364;2023-10-08T02:17:11;14.00;99.90
15259;DHT22;34462;51.368;12.364;2023-10-08T02:19:40;13.90;99.90
15259;DHT22;34462;51.368;12.364;2023-10-08T02:22:08;13.80;99.90
15259;DHT22;34462;51.368;12.364;2023-10-08T02:24:37;13.80;99.90
15259;DHT22;34462;51.368;12.364;2023-10-08T02:27:06;13.80;99.90
15259;DHT22;34462;51.368;12.364;2023-10-08T02:29:36;13.70;99.90
15259;DHT22;34462;51.368;12.364;2023-10-08T02:32:04;13.70;99.90
15259;DHT22;34462;51.368;12.364;2023-10-08T02:34:32;13.60;99.90
15259;DHT22;34462;51.368;12.364;2023-10-08T02:37:02;13.60;99.90
15259;DHT22;34462;51.368;12.364;2023-10-08T02:39:31;13.50;99.90
15259;DHT22;34462;51.368;12.364;2023-10-08T02:42:01;13.50;99.90
15259;DHT22;34462;51.368;12.364;2023-10-08T02:44:29;13.40;99.90
15259;DHT22;34462;51.368;12.364;2023-10-08T02:47:00;13.30;99.90
15259;DHT22;34462;51.368;12.364;2023-10-08T02:49:30;13.20;99.90
15259;DHT22;34462;51.368;12.364;2023-10-08T02:51:58;13.30;99.90
15259;DHT22;34462;51.368;12.364;2023-10-08T02:54:26;13.20;99.90
15259;DHT22;34462;51.368;12.364;2023-10-08T02:57:03;13.10;99.90
15259;DHT22;34462;51.368;12.364;2023-10-08T02:59:37;13.10;99.90
15259;DHT22;34462;51.368;12.364;2023-10-08T03:02:09;13.10;99.90
15259;DHT22;34462;51.368;12.364;2023-10-08T03:04:43;13.00;99.90
15259;DHT22;34462;51.368;12.364;2023-10-08T03:07:13;13.00;99.90
15259;DHT22;34462;51.368;12.364;2023-10-08T03:09:49;13.00;99.90
15259;DHT22;34462;51.368;12.364;2023-10-08T03:12:30;13.00;99.90
15259;DHT22;34462;51.368;12.364;2023-10-08T03:14:59;13.00;99.90
15259;DHT22;34462;51.368;12.364;2023-10-08T03:17:41;13.00;99.90
15259;DHT22;34462;51.368;12.364;2023-10-08T03:20:18;12.90;99.90
15259;DHT22;34462;51.368;12.364;2023-10-08T03:22:56;12.90;99.90
15259;DHT22;34462;51.368;12.364;2023-10-08T03:25:25;12.90;99.90
15259;DHT22;34462;51.368;12.364;2023-10-08T03:27:54;12.90;99.90
15259;DHT22;34462;51.368;12.364;2023-10-08T03:30:26;13.00;99.90
15259;DHT22;34462;51.368;12.364;2023-10-08T03:32:55;12.80;99.90
15259;DHT22;34462;51.368;12.364;2023-10-08T03:35:23;12.80;99.90
15259;DHT22;34462;51.368;12.364;2023-10-08T03:37:57;12.80;99.90
15259;DHT22;34462;51.368;12.364;2023-10-08T03:40:46;12.80;99.90
15259;DHT22;34462;51.368;12.364;2023-10-08T03:43:17;12.70;99.90
15259;DHT22;34462;51.368;12.364;2023-10-08T03:45:51;12.70;99.90
15259;DHT22;34462;51.368;12.364;2023-10-08T03:48:22;12.70;99.90
15259;DHT22;34462;51.368;12.364;2023-10-08T03:50:56;12.70;99.90
15259;DHT22;34462;51.368;12.364;2023-10-08T03:53:26;12.60;99.90
15259;DHT22;34462;51.368;12.364;2023-10-08T03:55:58;12.70;99.90
15259;DHT22;34462;51.368;12.364;2023-10-08T03:58:31;12.70;99.90
15259;DHT22;34462;51.368;12.364;2023-10-08T04:01:07;12.60;99.90
15259;DHT22;34462;51.368;12.364;2023-10-08T04:03:38;12.70;99.90
15259;DHT22;34462;51.368;12.364;2023-10-08T04:06:26;12.60;99.90
15259;DHT22;34462;51.368;12.364;2023-10-08T04:09:05;12.50;99.90
15259;DHT22;34462;51.368;12.364;2023-10-08T04:11:43;12.50;99.90
15259;DHT22;34462;51.368;12.364;2023-10-08T04:14:25;12.50;99.90
15259;DHT22;34462;51.368;12.364;2023-10-08T04:16:55;12.50;99.90
15259;DHT22;34462;51.368;12.364;2023-10-08T04:19:27;12.50;99.90
15259;DHT22;34462;51.368;12.364;2023-10-08T04:21:56;12.50;99.90
15259;DHT22;34462;51.368;12.364;2023-10-08T04:24:25;12.50;99.90
15259;DHT22;34462;51.368;12.364;2023-10-08T04:27:02;12.50;99.90
15259;DHT22;34462;51.368;12.364;2023-10-08T04:29:33;12.40;99.90
15259;DHT22;34462;51.368;12.364;2023-10-08T04:32:04;12.50;99.90
15259;DHT22;34462;51.368;12.364;2023-10-08T04:34:37;12.40;99.90
15259;DHT22;34462;51.368;12.364;2023-10-08T04:37:11;12.50;99.90
15259;DHT22;34462;51.368;12.364;2023-10-08T04:39:40;12.50;99.90
15259;DHT22;34462;51.368;12.364;2023-10-08T04:42:21;12.50;99.90
15259;DHT22;34462;51.368;12.364;2023-10-08T04:44:53;12.60;99.90
15259;DHT22;34462;51.368;12.364;2023-10-08T04:47:22;12.40;99.90
15259;DHT22;34462;51.368;12.364;2023-10-08T04:50:02;12.30;99.90
15259;DHT22;34462;51.368;12.364;2023-10-08T04:52:32;12.20;99.90
15259;DHT22;34462;51.368;12.364;2023-10-08T04:55:12;12.10;99.90
15259;DHT22;34462;51.368;12.364;2023-10-08T04:57:46;12.00;99.90
15259;DHT22;34462;51.368;12.364;2023-10-08T05:00:16;12.10;99.90
15259;DHT22;34462;51.368;12.364;2023-10-08T05:03:04;12.00;99.90
15259;DHT22;34462;51.368;12.364;2023-10-08T05:05:42;11.90;99.90
15259;DHT22;34462;51.368;12.364;2023-10-08T05:08:34;11.80;99.90
15259;DHT22;34462;51.368;12.364;2023-10-08T05:11:14;11.90;99.90
15259;DHT22;34462;51.368;12.364;2023-10-08T05:13:51;11.80;99.90
15259;DHT22;34462;51.368;12.364;2023-10-08T05:16:33;11.70;99.90
15259;DHT22;34462;51.368;12.364;2023-10-08T05:19:10;11.70;99.90
15259;DHT22;34462;51.368;12.364;2023-10-08T05:22:16;11.90;99.90
15259;DHT22;34462;51.368;12.364;2023-10-08T05:25:01;11.70;99.90
15259;DHT22;34462;51.368;12.364;2023-10-08T05:27:39;11.60;99.90
15259;DHT22;34462;51.368;12.364;2023-10-08T05:30:26;11.50;99.90
15259;DHT22;34462;51.368;12.364;2023-10-08T05:33:06;11.60;99.90
15259;DHT22;34462;51.368;12.364;2023-10-08T05:35:41;11.60;99.90
15259;DHT22;34462;51.368;12.364;2023-10-08T05:38:23;11.60;99.90
15259;DHT22;34462;51.368;12.364;2023-10-08T05:41:05;11.50;99.90
15259;DHT22;34462;51.368;12.364;2023-10-08T05:43:44;11.50;99.90
15259;DHT22;34462;51.368;12.364;2023-10-08T05:46:41;11.60;99.90
15259;DHT22;34462;51.368;12.364;2023-10-08T05:49:33;11.50;99.90
15259;DHT22;34462;51.368;12.364;2023-10-08T05:52:21;11.50;99.90
15259;DHT22;34462;51.368;12.364;2023-10-08T05:55:09;11.40;99.90
15259;DHT22;34462;51.368;12.364;2023-10-08T05:57:53;11.50;99.90
15259;DHT22;34462;51.368;12.364;2023-10-08T06:00:40;11.40;99.90
15259;DHT22;34462;51.368;12.364;2023-10-08T06:03:32;11.40;99.90
15259;DHT22;34462;51.368;12.364;2023-10-08T06:06:05;11.40;99.90
15259;DHT22;34462;51.368;12.364;2023-10-08T06:09:06;11.40;99.90
15259;DHT22;34462;51.368;12.364;2023-10-08T06:11:50;11.50;99.90
15259;DHT22;34462;51.368;12.364;2023-10-08T06:14:35;11.50;99.90
15259;DHT22;34462;51.368;12.364;2023-10-08T06:17:35;11.60;99.90
15259;DHT22;34462;51.368;12.364;2023-10-08T06:20:24;11.50;99.90
15259;DHT22;34462;51.368;12.364;2023-10-08T06:22:54;11.50;99.90
15259;DHT22;34462;51.368;12.364;2023-10-08T06:25:28;11.50;99.90
15259;DHT22;34462;51.368;12.364;2023-10-08T06:27:58;11.60;99.90
15259;DHT22;34462;51.368;12.364;2023-10-08T06:30:29;11.60;99.90
15259;DHT22;34462;51.368;12.364;2023-10-08T06:33:02;11.60;99.90
15259;DHT22;34462;51.368;12.364;2023-10-08T06:35:31;11.50;99.90
15259;DHT22;34462;51.368;12.364;2023-10-08T06:38:00;11.50;99.90
15259;DHT22;34462;51.368;12.364;2023-10-08T06:40:34;11.60;99.90
15259;DHT22;34462;51.368;12.364;2023-10-08T06:43:12;11.60;99.90
15259;DHT22;34462;51.368;12.364;2023-10-08T06:45:49;11.60;99.90
15259;DHT22;34462;51.368;12.364;2023-10-08T06:48:21;11.60;99.90
15259;DHT22;34462;51.368;12.364;2023-10-08T06:50:52;11.70;99.90
15259;DHT22;34462;51.368;12.364;2023-10-08T06:53:25;11.60;99.90
15259;DHT22;34462;51.368;12.364;2023-10-08T06:55:56;11.60;99.90
15259;DHT22;34462;51.368;12.364;2023-10-08T06:58:31;11.60;99.90
15259;DHT22;34462;51.368;12.364;2023-10-08T07:01:00;11.60;99.90
15259;DHT22;34462;51.368;12.364;2023-10-08T07:03:32;11.70;99.90
15259;DHT22;34462;51.368;12.364;2023-10-08T07:06:01;11.80;99.90
15259;DHT22;34462;51.368;12.364;2023-10-08T07:08:44;11.70;99.90
15259;DHT22;34462;51.368;12.364;2023-10-08T07:11:19;11.70;99.90
15259;DHT22;34462;51.368;12.364;2023-10-08T07:13:50;11.70;99.90
15259;DHT22;34462;51.368;12.364;2023-10-08T07:16:19;11.70;99.90
15259;DHT22;34462;51.368;12.364;2023-10-08T07:18:48;11.70;99.90
15259;DHT22;34462;51.368;12.364;2023-10-08T07:21:19;11.60;99.90
15259;DHT22;34462;51.368;12.364;2023-10-08T07:23:55;11.60;99.90
15259;DHT22;34462;51.368;12.364;2023-10-08T07:26:27;11.60;99.90
15259;DHT22;34462;51.368;12.364;2023-10-08T07:29:06;11.60;99.90
15259;DHT22;34462;51.368;12.364;2023-10-08T07:31:36;11.50;99.90
15259;DHT22;34462;51.368;12.364;2023-10-08T07:34:08;11.70;99.90
15259;DHT22;34462;51.368;12.364;2023-10-08T07:36:46;11.70;99.90
15259;DHT22;34462;51.368;12.364;2023-10-08T07:39:16;11.70;99.90
15259;DHT22;34462;51.368;12.364;2023-10-08T07:42:02;11.60;99.90
15259;DHT22;34462;51.368;12.364;2023-10-08T07:44:37;11.60;99.90
15259;DHT22;34462;51.368;12.364;2023-10-08T07:47:06;11.60;99.90
15259;DHT22;34462;51.368;12.364;2023-10-08T07:49:40;11.60;99.90
15259;DHT22;34462;51.368;12.364;2023-10-08T07:52:11;11.60;99.90
15259;DHT22;34462;51.368;12.364;2023-10-08T07:54:43;11.60;99.90
15259;DHT22;34462;51.368;12.364;2023-10-08T07:57:11;11.70;99.90
15259;DHT22;34462;51.368;12.364;2023-10-08T07:59:46;11.80;99.90
15259;DHT22;34462;51.368;12.364;2023-10-08T08:02:16;11.70;99.90
15259;DHT22;34462;51.368;12.364;2023-10-08T08:04:50;11.70;99.90
15259;DHT22;34462;51.368;12.364;2023-10-08T08:07:20;11.70;99.90
15259;DHT22;34462;51.368;12.364;2023-10-08T08:09:50;11.80;99.90
15259;DHT22;34462;51.368;12.364;2023-10-08T08:12:25;11.80;99.90
15259;DHT22;34462;51.368;12.364;2023-10-08T08:14:56;11.80;99.90
15259;DHT22;34462;51.368;12.364;2023-10-08T08:17:24;11.90;99.90
15259;DHT22;34462;51.368;12.364;2023-10-08T08:19:53;12.00;99.90
15259;DHT22;34462;51.368;12.364;2023-10-08T08:22:22;12.10;99.90
15259;DHT22;34462;51.368;12.364;2023-10-08T08:24:57;12.10;99.90
15259;DHT22;34462;51.368;12.364;2023-10-08T08:27:33;12.30;99.90
15259;DHT22;34462;51.368;12.364;2023-10-08T08:30:03;12.30;99.90
15259;DHT22;34462;51.368;12.364;2023-10-08T08:32:39;12.40;99.90
15259;DHT22;34462;51.368;12.364;2023-10-08T08:35:11;12.50;99.90
15259;DHT22;34462;51.368;12.364;2023-10-08T08:37:44;12.60;99.90
15259;DHT22;34462;51.368;12.364;2023-10-08T08:40:13;12.60;99.90
15259;DHT22;34462;51.368;12.364;2023-10-08T08:42:45;12.70;99.90
15259;DHT22;34462;51.368;12.364;2023-10-08T08:45:19;12.90;99.90
15259;DHT22;34462;51.368;12.364;2023-10-08T08:47:48;12.90;99.90
15259;DHT22;34462;51.368;12.364;2023-10-08T08:50:17;12.90;99.90
15259;DHT22;34462;51.368;12.364;2023-10-08T08:52:46;13.10;99.90
15259;DHT22;34462;51.368;12.364;2023-10-08T08:55:15;13.10;99.90
15259;DHT22;34462;51.368;12.364;2023-10-08T08:57:48;13.20;99.90
15259;DHT22;34462;51.368;12.364;2023-10-08T09:00:20;13.30;99.90
15259;DHT22;34462;51.368;12.364;2023-10-08T09:02:53;13.50;99.90
15259;DHT22;34462;51.368;12.364;2023-10-08T09:05:22;13.50;99.90
15259;DHT22;34462;51.368;12.364;2023-10-08T09:07:56;13.70;99.90
15259;DHT22;34462;51.368;12.364;2023-10-08T09:10:26;13.70;99.90
15259;DHT22;34462;51.368;12.364;2023-10-08T09:12:56;13.80;99.90
15259;DHT22;34462;51.368;12.364;2023-10-08T09:15:28;13.90;99.90
15259;DHT22;34462;51.368;12.364;2023-10-08T09:17:57;13.90;99.90
15259;DHT22;34462;51.368;12.364;2023-10-08T09:20:28;13.90;99.90
15259;DHT22;34462;51.368;12.364;2023-10-08T09:23:16;13.90;99.90
15259;DHT22;34462;51.368;12.364;2023-10-08T09:25:48;14.00;99.90
15259;DHT22;34462;51.368;12.364;2023-10-08T09:28:18;14.00;99.90
15259;DHT22;34462;51.368;12.364;2023-10-08T09:30:49;14.10;99.90
15259;DHT22;34462;51.368;12.364;2023-10-08T09:33:20;14.20;99.90
15259;DHT22;34462;51.368;12.364;2023-10-08T09:35:48;14.20;99.90
15259;DHT22;34462;51.368;12.364;2023-10-08T09:38:19;14.10;99.90
15259;DHT22;34462;51.368;12.364;2023-10-08T09:40:52;14.10;99.90
15259;DHT22;34462;51.368;12.364;2023-10-08T09:43:21;14.00;99.90
15259;DHT22;34462;51.368;12.364;2023-10-08T09:45:55;13.90;99.90
15259;DHT22;34462;51.368;12.364;2023-10-08T09:48:29;13.90;99.90
15259;DHT22;34462;51.368;12.364;2023-10-08T09:50:59;13.90;99.90
15259;DHT22;34462;51.368;12.364;2023-10-08T09:53:40;13.90;99.90
15259;DHT22;34462;51.368;12.364;2023-10-08T09:56:15;13.90;99.90
15259;DHT22;34462;51.368;12.364;2023-10-08T09:58:46;14.00;99.90
15259;DHT22;34462;51.368;12.364;2023-10-08T10:01:19;14.00;99.90
15259;DHT22;34462;51.368;12.364;2023-10-08T10:03:50;14.10;99.90
15259;DHT22;34462;51.368;12.364;2023-10-08T10:06:19;14.10;99.90
15259;DHT22;34462;51.368;12.364;2023-10-08T10:08:48;14.00;99.90
15259;DHT22;34462;51.368;12.364;2023-10-08T10:11:16;14.00;99.90
15259;DHT22;34462;51.368;12.364;2023-10-08T10:13:49;14.10;99.90
15259;DHT22;34462;51.368;12.364;2023-10-08T10:16:21;14.10;99.90
15259;DHT22;34462;51.368;12.364;2023-10-08T10:18:49;14.00;99.90
15259;DHT22;34462;51.368;12.364;2023-10-08T10:21:26;14.00;99.90
15259;DHT22;34462;51.368;12.364;2023-10-08T10:23:57;14.10;99.90
15259;DHT22;34462;51.368;12.364;2023-10-08T10:26:27;14.00;99.90
15259;DHT22;34462;51.368;12.364;2023-10-08T10:29:20;14.00;99.90
15259;DHT22;34462;51.368;12.364;2023-10-08T10:31:51;14.30;99.90
15259;DHT22;34462;51.368;12.364;2023-10-08T10:34:22;14.40;99.90
15259;DHT22;34462;51.368;12.364;2023-10-08T10:36:55;14.50;99.90
15259;DHT22;34462;51.368;12.364;2023-10-08T10:39:29;14.50;99.90
15259;DHT22;34462;51.368;12.364;2023-10-08T10:42:02;14.60;99.90
15259;DHT22;34462;51.368;12.364;2023-10-08T10:44:33;14.60;99.90
15259;DHT22;34462;51.368;12.364;2023-10-08T10:47:05;14.60;99.90
15259;DHT22;34462;51.368;12.364;2023-10-08T10:49:52;14.50;99.90
15259;DHT22;34462;51.368;12.364;2023-10-08T10:52:22;14.70;99.90
15259;DHT22;34462;51.368;12.364;2023-10-08T10:55:02;14.90;99.90
15259;DHT22;34462;51.368;12.364;2023-10-08T10:57:48;15.10;99.90
15259;DHT22;34462;51.368;12.364;2023-10-08T11:00:22;15.20;99.90
15259;DHT22;34462;51.368;12.364;2023-10-08T11:03:10;15.10;99.90
15259;DHT22;34462;51.368;12.364;2023-10-08T11:05:49;15.20;99.90
15259;DHT22;34462;51.368;12.364;2023-10-08T11:08:22;15.10;99.90
15259;DHT22;34462;51.368;12.364;2023-10-08T11:10:53;15.30;99.90
15259;DHT22;34462;51.368;12.364;2023-10-08T11:13:25;15.00;99.90
15259;DHT22;34462;51.368;12.364;2023-10-08T11:16:05;15.00;99.90
15259;DHT22;34462;51.368;12.364;2023-10-08T11:18:43;14.90;99.90
15259;DHT22;34462;51.368;12.364;2023-10-08T11:21:14;14.90;99.90
15259;DHT22;34462;51.368;12.364;2023-10-08T11:23:44;15.00;99.90
15259;DHT22;34462;51.368;12.364;2023-10-08T11:26:20;15.10;99.90
15259;DHT22;34462;51.368;12.364;2023-10-08T11:28:59;15.20;99.90
15259;DHT22;34462;51.368;12.364;2023-10-08T11:31:29;15.30;99.90
15259;DHT22;34462;51.368;12.364;2023-10-08T11:34:03;15.30;99.90
15259;DHT22;34462;51.368;12.364;2023-10-08T11:36:37;15.30;99.90
15259;DHT22;34462;51.368;12.364;2023-10-08T11:39:16;15.20;99.90
15259;DHT22;34462;51.368;12.364;2023-10-08T11:41:58;15.40;99.90
15259;DHT22;34462;51.368;12.364;2023-10-08T11:44:31;15.50;99.90
15259;DHT22;34462;51.368;12.364;2023-10-08T11:47:04;15.80;99.90
15259;DHT22;34462;51.368;12.364;2023-10-08T11:49:42;16.10;99.90
15259;DHT22;34462;51.368;12.364;2023-10-08T11:52:17;16.20;99.90
15259;DHT22;34462;51.368;12.364;2023-10-08T11:54:48;15.80;99.90
15259;DHT22;34462;51.368;12.364;2023-10-08T11:57:20;15.50;99.90
15259;DHT22;34462;51.368;12.364;2023-10-08T11:59:50;15.20;99.90
15259;DHT22;34462;51.368;12.364;2023-10-08T12:02:22;15.00;99.90
15259;DHT22;34462;51.368;12.364;2023-10-08T12:04:51;14.70;99.90
15259;DHT22;34462;51.368;12.364;2023-10-08T12:07:24;14.50;99.90
15259;DHT22;34462;51.368;12.364;2023-10-08T12:09:54;14.50;99.90
15259;DHT22;34462;51.368;12.364;2023-10-08T12:12:22;14.50;99.90
15259;DHT22;34462;51.368;12.364;2023-10-08T12:14:51;14.70;99.90
15259;DHT22;34462;51.368;12.364;2023-10-08T12:17:21;14.90;99.90
15259;DHT22;34462;51.368;12.364;2023-10-08T12:20:06;15.20;99.90
15259;DHT22;34462;51.368;12.364;2023-10-08T12:22:50;15.60;99.90
15259;DHT22;34462;51.368;12.364;2023-10-08T12:25:19;16.00;99.90
15259;DHT22;34462;51.368;12.364;2023-10-08T12:27:47;16.50;99.90
15259;DHT22;34462;51.368;12.364;2023-10-08T12:30:16;16.90;99.90
15259;DHT22;34462;51.368;12.364;2023-10-08T12:32:44;17.20;99.90
15259;DHT22;34462;51.368;12.364;2023-10-08T12:35:14;17.10;99.90
15259;DHT22;34462;51.368;12.364;2023-10-08T12:37:43;17.20;99.90
15259;DHT22;34462;51.368;12.364;2023-10-08T12:40:11;17.20;99.90
15259;DHT22;34462;51.368;12.364;2023-10-08T12:42:50;16.90;99.90
15259;DHT22;34462;51.368;12.364;2023-10-08T12:45:19;16.70;99.90
15259;DHT22;34462;51.368;12.364;2023-10-08T12:47:49;16.60;99.90
15259;DHT22;34462;51.368;12.364;2023-10-08T12:50:20;16.30;99.90
15259;DHT22;34462;51.368;12.364;2023-10-08T12:52:56;16.00;99.90
15259;DHT22;34462;51.368;12.364;2023-10-08T12:55:30;15.70;99.90
15259;DHT22;34462;51.368;12.364;2023-10-08T12:58:07;15.50;99.90
15259;DHT22;34462;51.368;12.364;2023-10-08T13:00:37;15.30;99.90
15259;DHT22;34462;51.368;12.364;2023-10-08T13:03:08;15.10;99.90
15259;DHT22;34462;51.368;12.364;2023-10-08T13:05:43;15.20;99.90
15259;DHT22;34462;51.368;12.364;2023-10-08T13:08:12;15.40;99.90
15259;DHT22;34462;51.368;12.364;2023-10-08T13:10:40;15.70;99.90
15259;DHT22;34462;51.368;12.364;2023-10-08T13:13:11;15.70;99.90
15259;DHT22;34462;51.368;12.364;2023-10-08T13:15:39;16.00;99.90
15259;DHT22;34462;51.368;12.364;2023-10-08T13:18:09;16.00;99.90
15259;DHT22;34462;51.368;12.364;2023-10-08T13:20:38;16.10;99.90
15259;DHT22;34462;51.368;12.364;2023-10-08T13:23:10;16.10;99.90
15259;DHT22;34462;51.368;12.364;2023-10-08T13:25:38;16.40;99.90
15259;DHT22;34462;51.368;12.364;2023-10-08T13:28:06;16.60;99.90
15259;DHT22;34462;51.368;12.364;2023-10-08T13:30:38;16.90;99.90
15259;DHT22;34462;51.368;12.364;2023-10-08T13:33:06;17.10;99.90
15259;DHT22;34462;51.368;12.364;2023-10-08T13:35:36;17.10;99.90
15259;DHT22;34462;51.368;12.364;2023-10-08T13:38:05;17.00;99.90
15259;DHT22;34462;51.368;12.364;2023-10-08T13:40:38;17.00;99.90
15259;DHT22;34462;51.368;12.364;2023-10-08T13:43:10;16.80;99.90
15259;DHT22;34462;51.368;12.364;2023-10-08T13:45:39;16.70;99.90
15259;DHT22;34462;51.368;12.364;2023-10-08T13:48:08;16.50;99.90
15259;DHT22;34462;51.368;12.364;2023-10-08T13:50:41;16.20;99.90
15259;DHT22;34462;51.368;12.364;2023-10-08T13:53:10;16.00;99.90
15259;DHT22;34462;51.368;12.364;2023-10-08T13:55:41;15.80;99.90
15259;DHT22;34462;51.368;12.364;2023-10-08T13:58:12;15.70;99.90
15259;DHT22;34462;51.368;12.364;2023-10-08T14:00:40;15.70;99.90
15259;DHT22;34462;51.368;12.364;2023-10-08T14:03:08;15.70;99.90
15259;DHT22;34462;51.368;12.364;2023-10-08T14:05:38;15.70;99.90
15259;DHT22;34462;51.368;12.364;2023-10-08T14:08:07;15.70;99.90
15259;DHT22;34462;51.368;12.364;2023-10-08T14:10:44;15.60;99.90
15259;DHT22;34462;51.368;12.364;2023-10-08T14:13:13;15.40;99.90
15259;DHT22;34462;51.368;12.364;2023-10-08T14:15:46;15.40;99.90
15259;DHT22;34462;51.368;12.364;2023-10-08T14:18:22;15.30;99.90
15259;DHT22;34462;51.368;12.364;2023-10-08T14:20:55;15.30;99.90
15259;DHT22;34462;51.368;12.364;2023-10-08T14:23:23;15.40;99.90
15259;DHT22;34462;51.368;12.364;2023-10-08T14:25:54;15.30;99.90
15259;DHT22;34462;51.368;12.364;2023-10-08T14:28:30;15.40;99.90
15259;DHT22;34462;51.368;12.364;2023-10-08T14:31:10;15.40;99.90
15259;DHT22;34462;51.368;12.364;2023-10-08T14:33:42;15.40;99.90
15259;DHT22;34462;51.368;12.364;2023-10-08T14:36:23;15.30;99.90
15259;DHT22;34462;51.368;12.364;2023-10-08T14:39:20;15.20;99.90
15259;DHT22;34462;51.368;12.364;2023-10-08T14:42:12;15.00;99.90
15259;DHT22;34462;51.368;12.364;2023-10-08T14:44:58;14.70;99.90
15259;DHT22;34462;51.368;12.364;2023-10-08T14:47:26;14.60;99.90
15259;DHT22;34462;51.368;12.364;2023-10-08T14:49:55;14.50;99.90
15259;DHT22;34462;51.368;12.364;2023-10-08T14:52:23;14.50;99.90
15259;DHT22;34462;51.368;12.364;2023-10-08T14:54:52;14.60;99.90
15259;DHT22;34462;51.368;12.364;2023-10-08T14:57:21;14.70;99.90
15259;DHT22;34462;51.368;12.364;2023-10-08T14:59:53;14.70;99.90
15259;DHT22;34462;51.368;12.364;2023-10-08T15:02:22;14.80;99.90
15259;DHT22;34462;51.368;12.364;2023-10-08T15:04:56;14.80;99.90
15259;DHT22;34462;51.368;12.364;2023-10-08T15:07:24;14.80;99.90
15259;DHT22;34462;51.368;12.364;2023-10-08T15:09:54;14.80;99.90
15259;DHT22;34462;51.368;12.364;2023-10-08T15:12:25;14.60;99.90
15259;DHT22;34462;51.368;12.364;2023-10-08T15:14:54;14.60;99.90
15259;DHT22;34462;51.368;12.364;2023-10-08T15:17:23;14.50;99.90
15259;DHT22;34462;51.368;12.364;2023-10-08T15:19:51;14.40;99.90
15259;DHT22;34462;51.368;12.364;2023-10-08T15:22:23;14.30;99.90
15259;DHT22;34462;51.368;12.364;2023-10-08T15:24:52;14.10;99.90
15259;DHT22;34462;51.368;12.364;2023-10-08T15:27:21;14.10;99.90
15259;DHT22;34462;51.368;12.364;2023-10-08T15:29:51;14.00;99.90
15259;DHT22;34462;51.368;12.364;2023-10-08T15:32:19;13.80;99.90
15259;DHT22;34462;51.368;12.364;2023-10-08T15:34:47;13.70;99.90
15259;DHT22;34462;51.368;12.364;2023-10-08T15:37:16;13.60;99.90
15259;DHT22;34462;51.368;12.364;2023-10-08T15:39:45;13.50;99.90
15259;DHT22;34462;51.368;12.364;2023-10-08T15:42:13;13.40;99.90
15259;DHT22;34462;51.368;12.364;2023-10-08T15:44:41;13.30;99.90
15259;DHT22;34462;51.368;12.364;2023-10-08T15:47:11;13.00;99.90
15259;DHT22;34462;51.368;12.364;2023-10-08T15:49:39;13.20;99.90
15259;DHT22;34462;51.368;12.364;2023-10-08T15:52:07;13.20;99.90